createdAt,value
2016-11-18T00:01:06.623Z,99.99
2016-11-18T00:02:20.344Z,99.99
2016-11-18T00:03:33.386Z,99.99
2016-11-18T00:04:45.856Z,99.99
2016-11-18T00:05:59.340Z,99.99
2016-11-18T00:07:12.381Z,99.99
2016-11-18T00:08:25.368Z,99.99
2016-11-18T00:09:38.322Z,99.99
2016-11-18T00:10:50.867Z,99.99
2016-11-18T00:12:04.013Z,99.99
2016-11-18T00:13:17.060Z,99.99
2016-11-18T00:14:30.642Z,99.99
2016-11-18T00:15:43.083Z,99.99
2016-11-18T00:16:55.522Z,99.99
2016-11-18T00:18:08.454Z,99.99
2016-11-18T00:19:21.601Z,99.99
2016-11-18T00:20:34.683Z,99.99
2016-11-18T00:21:47.208Z,99.99
2016-11-18T00:23:00.318Z,99.99
2016-11-18T00:24:12.874Z,99.99
2016-11-18T00:25:25.331Z,99.99
2016-11-18T00:26:38.918Z,99.99
2016-11-18T00:27:51.867Z,99.99
2016-11-18T00:29:05.549Z,99.99
2016-11-18T00:30:19.130Z,99.99
2016-11-18T00:31:31.651Z,99.99
2016-11-18T00:32:45.201Z,99.99
2016-11-18T00:33:56.566Z,99.99
2016-11-18T00:35:09.164Z,99.99
2016-11-18T00:36:22.660Z,99.99
2016-11-18T00:37:35.723Z,99.99
2016-11-18T00:38:48.224Z,99.99
2016-11-18T00:40:01.808Z,99.99
2016-11-18T00:41:13.846Z,99.99
2016-11-18T00:42:58.506Z,99.99
2016-11-18T00:44:11.959Z,99.99
2016-11-18T00:45:25.195Z,99.99
2016-11-18T00:46:38.152Z,99.99
2016-11-18T00:47:51.612Z,99.99
2016-11-18T00:49:04.557Z,99.99
2016-11-18T00:50:16.475Z,99.99
2016-11-18T00:51:29.536Z,99.99
2016-11-18T00:52:41.931Z,99.99
2016-11-18T00:53:54.379Z,99.99
2016-11-18T00:55:07.828Z,99.99
2016-11-18T00:56:21.418Z,99.99
2016-11-18T00:57:35.054Z,99.99
2016-11-18T00:59:19.729Z,99.99
2016-11-18T01:00:32.700Z,99.99
2016-11-18T01:01:46.382Z,99.99
2016-11-18T01:02:59.337Z,99.99
2016-11-18T01:04:12.303Z,99.99
2016-11-18T01:05:25.753Z,99.99
2016-11-18T01:06:38.746Z,99.99
2016-11-18T01:07:52.186Z,99.99
2016-11-18T01:09:05.094Z,99.99
2016-11-18T01:10:18.123Z,99.99
2016-11-18T01:11:31.636Z,99.99
2016-11-18T01:13:15.802Z,99.99
2016-11-18T01:14:28.784Z,99.99
2016-11-18T01:15:42.260Z,99.99
2016-11-18T01:16:54.671Z,99.99
2016-11-18T01:18:07.747Z,99.99
2016-11-18T01:19:21.225Z,99.99
2016-11-18T01:20:33.620Z,99.99
2016-11-18T01:21:47.126Z,99.99
2016-11-18T01:23:00.036Z,99.99
2016-11-18T01:24:12.457Z,99.99
2016-11-18T01:25:25.993Z,99.99
2016-11-18T01:26:38.960Z,99.99
2016-11-18T01:27:51.966Z,99.99
2016-11-18T01:29:05.005Z,99.99
2016-11-18T01:30:17.432Z,99.99
2016-11-18T01:31:29.912Z,99.99
2016-11-18T01:32:42.346Z,99.99
2016-11-18T01:33:55.820Z,99.99
2016-11-18T01:35:08.831Z,99.99
2016-11-18T01:36:22.316Z,99.99
2016-11-18T01:37:35.229Z,99.99
2016-11-18T01:38:48.158Z,99.99
2016-11-18T01:40:00.202Z,99.99
2016-11-18T01:41:12.670Z,99.99
2016-11-18T01:42:25.110Z,99.99
2016-11-18T01:43:38.094Z,99.99
2016-11-18T01:44:51.514Z,99.99
2016-11-18T01:46:03.927Z,99.99
2016-11-18T01:47:16.858Z,99.99
2016-11-18T01:48:30.311Z,99.99
2016-11-18T01:49:43.251Z,99.99
2016-11-18T01:50:55.752Z,99.99
2016-11-18T01:52:09.290Z,99.99
2016-11-18T01:53:21.732Z,99.99
2016-11-18T01:54:34.655Z,99.99
2016-11-18T01:55:47.097Z,99.99
2016-11-18T01:57:00.647Z,99.99
2016-11-18T01:58:13.622Z,99.99
2016-11-18T01:59:27.129Z,99.99
2016-11-18T02:00:39.544Z,99.99
2016-11-18T02:01:52.691Z,99.99
2016-11-18T02:03:06.259Z,99.99
2016-11-18T02:04:19.817Z,99.99
2016-11-18T02:05:32.827Z,99.99
2016-11-18T02:06:46.267Z,99.99
2016-11-18T02:07:59.205Z,99.99
2016-11-18T02:09:12.629Z,99.99
2016-11-18T02:10:26.179Z,99.99
2016-11-18T02:11:39.723Z,99.99
2016-11-18T02:12:53.334Z,99.99
2016-11-18T02:14:06.786Z,99.99
2016-11-18T02:15:19.705Z,99.99
2016-11-18T02:16:32.194Z,99.99
2016-11-18T02:17:45.660Z,99.99
2016-11-18T02:18:59.169Z,99.99
2016-11-18T02:20:12.677Z,99.99
2016-11-18T02:21:26.123Z,99.99
2016-11-18T02:22:39.101Z,99.99
2016-11-18T02:23:52.672Z,99.99
2016-11-18T02:25:05.656Z,99.99
2016-11-18T02:26:19.117Z,99.99
2016-11-18T02:27:32.031Z,99.99
2016-11-18T02:28:45.533Z,99.99
2016-11-18T02:29:59.049Z,99.99
2016-11-18T02:31:11.453Z,99.99
2016-11-18T02:32:23.843Z,99.99
2016-11-18T02:33:37.346Z,99.99
2016-11-18T02:34:51.066Z,99.99
2016-11-18T02:36:04.039Z,99.99
2016-11-18T02:37:16.385Z,99.99
2016-11-18T02:38:29.384Z,99.99
2016-11-18T02:39:42.311Z,99.99
2016-11-18T02:40:55.422Z,99.99
2016-11-18T02:42:08.922Z,99.99
2016-11-18T02:43:21.876Z,99.99
2016-11-18T02:44:33.773Z,99.99
2016-11-18T02:45:46.826Z,99.99
2016-11-18T02:46:58.728Z,99.99
2016-11-18T02:48:11.677Z,99.99
2016-11-18T02:49:54.675Z,99.99
2016-11-18T02:51:08.237Z,99.99
2016-11-18T02:52:21.179Z,99.99
2016-11-18T02:53:34.607Z,99.99
2016-11-18T02:54:47.641Z,99.99
2016-11-18T02:56:00.561Z,99.99
2016-11-18T02:57:13.039Z,99.99
2016-11-18T02:58:26.000Z,99.99
2016-11-18T02:59:38.494Z,99.99
2016-11-18T03:00:52.076Z,99.99
2016-11-18T03:02:05.721Z,99.99
2016-11-18T03:03:19.201Z,99.99
2016-11-18T03:04:32.679Z,99.99
2016-11-18T03:05:45.090Z,99.99
2016-11-18T03:06:58.559Z,99.99
2016-11-18T03:08:12.238Z,99.99
2016-11-18T03:09:25.217Z,99.99
2016-11-18T03:10:38.170Z,99.99
2016-11-18T03:11:50.106Z,99.99
2016-11-18T03:13:03.670Z,99.99
2016-11-18T03:14:17.131Z,99.99
2016-11-18T03:15:30.075Z,99.99
2016-11-18T03:16:43.542Z,99.99
2016-11-18T03:17:56.565Z,99.99
2016-11-18T03:19:09.507Z,99.99
2016-11-18T03:20:21.972Z,99.99
2016-11-18T03:21:35.598Z,99.99
2016-11-18T03:22:48.014Z,99.99
2016-11-18T03:24:00.596Z,99.99
2016-11-18T03:25:45.205Z,99.99
2016-11-18T03:26:58.207Z,99.99
2016-11-18T03:28:11.736Z,99.99
2016-11-18T03:29:25.453Z,99.99
2016-11-18T03:30:37.911Z,99.99
2016-11-18T03:31:51.478Z,99.99
2016-11-18T03:33:03.351Z,99.99
2016-11-18T03:34:16.842Z,99.99
2016-11-18T03:35:29.276Z,99.99
2016-11-18T03:36:42.711Z,99.99
2016-11-18T03:37:55.254Z,99.99
2016-11-18T03:39:08.161Z,99.99
2016-11-18T03:40:21.197Z,99.99
2016-11-18T03:41:33.606Z,99.99
2016-11-18T03:42:47.038Z,99.99
2016-11-18T03:43:59.988Z,99.99
2016-11-18T03:45:11.874Z,99.99
2016-11-18T03:46:25.483Z,99.99
2016-11-18T03:48:10.050Z,99.99
2016-11-18T03:49:23.026Z,99.99
2016-11-18T03:50:36.124Z,99.99
2016-11-18T03:51:49.677Z,99.99
2016-11-18T03:53:02.669Z,99.99
2016-11-18T03:54:16.227Z,99.99
2016-11-18T03:55:28.747Z,99.99
2016-11-18T03:56:42.393Z,99.99
2016-11-18T03:57:55.342Z,99.99
2016-11-18T03:59:07.898Z,99.99
2016-11-18T04:00:21.415Z,99.99
2016-11-18T04:01:34.909Z,99.99
2016-11-18T04:02:48.460Z,99.99
2016-11-18T04:04:01.978Z,99.99
2016-11-18T04:05:15.513Z,99.99
2016-11-18T04:06:29.015Z,99.99
2016-11-18T04:07:41.470Z,99.99
2016-11-18T04:08:53.870Z,99.99
2016-11-18T04:10:07.385Z,99.99
2016-11-18T04:11:19.758Z,99.99
2016-11-18T04:12:33.455Z,99.99
2016-11-18T04:13:46.411Z,99.99
2016-11-18T04:14:59.349Z,99.99
2016-11-18T04:16:11.725Z,99.99
2016-11-18T04:17:24.206Z,99.99
2016-11-18T04:18:37.686Z,99.99
2016-11-18T04:19:51.254Z,99.99
2016-11-18T04:21:35.281Z,99.99
2016-11-18T04:22:48.349Z,99.99
2016-11-18T04:24:01.777Z,99.99
2016-11-18T04:25:14.729Z,99.99
2016-11-18T04:26:28.187Z,99.99
2016-11-18T04:27:41.725Z,99.99
2016-11-18T04:28:55.165Z,99.99
2016-11-18T04:30:08.173Z,99.99
2016-11-18T04:31:21.172Z,99.99
2016-11-18T04:32:34.648Z,99.99
2016-11-18T04:33:48.198Z,99.99
2016-11-18T04:35:01.709Z,99.99
2016-11-18T04:36:15.186Z,99.99
2016-11-18T04:37:28.690Z,99.99
2016-11-18T04:38:42.138Z,99.99
2016-11-18T04:39:54.586Z,99.99
2016-11-18T04:41:39.203Z,99.99
2016-11-18T04:42:52.171Z,99.99
2016-11-18T04:44:04.691Z,99.99
2016-11-18T04:45:18.118Z,99.99
2016-11-18T04:46:31.079Z,99.99
2016-11-18T04:47:44.514Z,99.99
2016-11-18T04:48:57.995Z,99.99
2016-11-18T04:50:11.417Z,99.99
2016-11-18T04:51:24.355Z,99.99
2016-11-18T04:52:37.385Z,99.99
2016-11-18T04:53:50.363Z,99.99
2016-11-18T04:55:03.427Z,99.99
2016-11-18T04:56:16.891Z,99.99
2016-11-18T04:57:29.838Z,99.99
2016-11-18T04:58:43.316Z,99.99
2016-11-18T04:59:56.812Z,99.99
2016-11-18T05:01:09.749Z,99.99
2016-11-18T05:02:23.211Z,99.99
2016-11-18T05:03:35.622Z,99.99
2016-11-18T05:04:49.098Z,99.99
2016-11-18T05:06:02.738Z,99.99
2016-11-18T05:07:16.266Z,99.99
2016-11-18T05:08:29.867Z,99.99
2016-11-18T05:09:43.383Z,99.99
2016-11-18T05:10:56.908Z,99.99
2016-11-18T05:12:09.977Z,99.99
2016-11-18T05:13:22.386Z,99.99
2016-11-18T05:14:35.915Z,99.99
2016-11-18T05:15:49.398Z,99.99
2016-11-18T05:17:01.994Z,99.99
2016-11-18T05:18:15.526Z,99.99
2016-11-18T05:19:29.033Z,99.99
2016-11-18T05:20:42.543Z,99.99
2016-11-18T05:21:56.122Z,99.99
2016-11-18T05:23:09.631Z,99.99
2016-11-18T05:24:23.099Z,99.99
2016-11-18T05:25:35.553Z,99.99
2016-11-18T05:26:46.971Z,99.99
2016-11-18T05:28:00.040Z,99.99
2016-11-18T05:29:12.988Z,99.99
2016-11-18T05:30:26.538Z,99.99
2016-11-18T05:31:38.407Z,99.99
2016-11-18T05:32:50.906Z,99.99
2016-11-18T05:34:03.838Z,99.99
2016-11-18T05:35:17.332Z,99.99
2016-11-18T05:36:30.794Z,99.99
2016-11-18T05:37:43.807Z,99.99
2016-11-18T05:38:56.972Z,99.99
2016-11-18T05:40:10.416Z,99.99
2016-11-18T05:41:23.367Z,99.99
2016-11-18T05:42:36.767Z,99.99
2016-11-18T05:43:50.345Z,99.99
2016-11-18T05:45:03.877Z,99.99
2016-11-18T05:46:16.347Z,99.99
2016-11-18T05:47:29.953Z,99.99
2016-11-18T05:48:42.459Z,99.99
2016-11-18T05:49:55.558Z,99.99
2016-11-18T05:51:08.013Z,99.99
2016-11-18T05:52:20.512Z,99.99
2016-11-18T05:53:34.014Z,99.99
2016-11-18T05:54:47.572Z,99.99
2016-11-18T05:56:01.236Z,99.99
2016-11-18T05:57:14.778Z,99.99
2016-11-18T05:58:27.817Z,99.99
2016-11-18T05:59:41.486Z,99.99
2016-11-18T06:00:55.122Z,99.99
2016-11-18T06:02:08.182Z,99.99
2016-11-18T06:03:21.163Z,99.99
2016-11-18T06:04:34.634Z,99.99
2016-11-18T06:05:47.585Z,99.99
2016-11-18T06:07:00.188Z,99.99
2016-11-18T06:08:13.210Z,99.99
2016-11-18T06:09:25.080Z,99.99
2016-11-18T06:10:38.051Z,99.99
2016-11-18T06:11:51.662Z,99.99
2016-11-18T06:13:05.188Z,99.99
2016-11-18T06:14:17.629Z,99.99
2016-11-18T06:15:30.611Z,99.99
2016-11-18T06:16:44.099Z,99.99
2016-11-18T06:17:56.633Z,99.99
2016-11-18T06:19:10.189Z,99.99
2016-11-18T06:20:22.590Z,99.99
2016-11-18T06:21:36.088Z,99.99
2016-11-18T06:22:48.663Z,99.99
2016-11-18T06:24:02.236Z,99.99
2016-11-18T06:25:15.237Z,99.99
2016-11-18T06:26:28.715Z,99.99
2016-11-18T06:27:41.734Z,99.99
2016-11-18T06:28:54.749Z,99.99
2016-11-18T06:30:07.679Z,99.99
2016-11-18T06:31:19.623Z,99.99
2016-11-18T06:32:33.127Z,99.99
2016-11-18T06:33:46.695Z,99.99
2016-11-18T06:35:00.199Z,99.99
2016-11-18T06:36:13.742Z,99.99
2016-11-18T06:37:26.701Z,99.99
2016-11-18T06:38:39.136Z,99.99
2016-11-18T06:39:52.794Z,99.99
2016-11-18T06:41:05.236Z,99.99
2016-11-18T06:42:17.739Z,99.99
2016-11-18T06:43:30.184Z,99.99
2016-11-18T06:44:42.871Z,99.99
2016-11-18T06:45:55.824Z,99.99
2016-11-18T06:47:08.846Z,99.99
2016-11-18T06:48:21.810Z,99.99
2016-11-18T06:49:34.750Z,99.99
2016-11-18T06:50:47.794Z,99.99
2016-11-18T06:52:00.821Z,99.99
2016-11-18T06:53:14.292Z,99.99
2016-11-18T06:54:27.267Z,99.99
2016-11-18T06:55:39.830Z,99.99
2016-11-18T06:56:52.809Z,99.99
2016-11-18T06:58:05.292Z,99.99
2016-11-18T06:59:18.849Z,99.99
2016-11-18T07:00:31.844Z,99.99
2016-11-18T07:01:44.388Z,99.99
2016-11-18T07:02:57.426Z,99.99
2016-11-18T07:04:10.919Z,99.99
2016-11-18T07:05:23.887Z,99.99
2016-11-18T07:06:37.452Z,99.99
2016-11-18T07:07:50.889Z,99.99
2016-11-18T07:09:02.781Z,99.99
2016-11-18T07:10:15.768Z,99.99
2016-11-18T07:11:28.228Z,99.99
2016-11-18T07:12:40.628Z,99.99
2016-11-18T07:13:53.105Z,99.99
2016-11-18T07:15:06.086Z,99.99
2016-11-18T07:16:19.059Z,99.99
2016-11-18T07:17:32.633Z,99.99
2016-11-18T07:18:45.595Z,99.99
2016-11-18T07:19:58.472Z,99.99
2016-11-18T07:21:10.964Z,99.99
2016-11-18T07:22:24.442Z,99.99
2016-11-18T07:23:35.808Z,99.99
2016-11-18T07:24:48.841Z,99.99
2016-11-18T07:26:01.784Z,99.99
2016-11-18T07:27:15.293Z,99.99
2016-11-18T07:28:28.453Z,99.99
2016-11-18T07:29:41.984Z,99.99
2016-11-18T07:30:54.382Z,99.99
2016-11-18T07:32:07.831Z,99.99
2016-11-18T07:33:19.794Z,99.99
2016-11-18T07:34:33.330Z,99.99
2016-11-18T07:35:45.215Z,99.99
2016-11-18T07:36:58.733Z,99.99
2016-11-18T07:38:12.206Z,99.99
2016-11-18T07:39:24.237Z,99.99
2016-11-18T07:40:37.733Z,99.99
2016-11-18T07:41:50.683Z,99.99
2016-11-18T07:43:03.592Z,99.99
2016-11-18T07:44:48.383Z,99.99
2016-11-18T07:46:01.308Z,99.99
2016-11-18T07:47:14.178Z,99.99
2016-11-18T07:48:27.161Z,99.99
2016-11-18T07:49:40.100Z,99.99
2016-11-18T07:50:53.107Z,99.99
2016-11-18T07:52:05.608Z,99.99
2016-11-18T07:53:18.026Z,99.99
2016-11-18T07:54:31.534Z,99.99
2016-11-18T07:55:44.547Z,99.99
2016-11-18T07:56:58.095Z,99.99
2016-11-18T07:58:11.034Z,99.99
2016-11-18T07:59:23.516Z,99.99
2016-11-18T08:00:36.385Z,99.99
2016-11-18T08:01:48.944Z,99.99
2016-11-18T08:03:00.863Z,99.99
2016-11-18T08:04:14.377Z,99.99
2016-11-18T08:05:26.254Z,99.99
2016-11-18T08:06:38.783Z,99.99
2016-11-18T08:07:51.233Z,99.99
2016-11-18T08:09:04.681Z,99.99
2016-11-18T08:10:18.166Z,99.99
2016-11-18T08:11:31.644Z,99.99
2016-11-18T08:12:44.774Z,99.99
2016-11-18T08:13:57.724Z,99.99
2016-11-18T08:15:10.175Z,99.99
2016-11-18T08:16:23.153Z,99.99
2016-11-18T08:17:35.718Z,99.99
2016-11-18T08:18:48.684Z,99.99
2016-11-18T08:20:01.170Z,99.99
2016-11-18T08:21:13.095Z,99.99
2016-11-18T08:22:26.566Z,99.99
2016-11-18T08:23:40.061Z,99.99
2016-11-18T08:24:52.500Z,99.99
2016-11-18T08:26:05.931Z,99.99
2016-11-18T08:27:19.439Z,99.99
2016-11-18T08:28:33.506Z,99.99
2016-11-18T08:29:46.449Z,99.99
2016-11-18T08:30:59.422Z,99.99
2016-11-18T08:32:11.384Z,99.99
2016-11-18T08:33:24.336Z,99.99
2016-11-18T08:34:36.264Z,99.99
2016-11-18T08:35:49.749Z,99.99
2016-11-18T08:37:02.240Z,99.99
2016-11-18T08:38:15.809Z,99.99
2016-11-18T08:39:28.442Z,99.99
2016-11-18T08:40:40.822Z,99.99
2016-11-18T08:41:54.252Z,99.99
2016-11-18T08:43:07.713Z,99.99
2016-11-18T08:44:20.701Z,99.99
2016-11-18T08:45:34.273Z,99.99
2016-11-18T08:46:46.766Z,99.99
2016-11-18T08:48:00.263Z,99.99
2016-11-18T08:49:12.654Z,99.99
2016-11-18T08:50:26.239Z,99.99
2016-11-18T08:51:39.177Z,99.99
2016-11-18T08:52:52.731Z,99.99
2016-11-18T08:54:05.741Z,99.99
2016-11-18T08:55:18.386Z,99.99
2016-11-18T08:56:31.367Z,99.99
2016-11-18T08:57:43.322Z,99.99
2016-11-18T08:58:55.729Z,99.99
2016-11-18T09:00:08.678Z,99.99
2016-11-18T09:01:22.309Z,99.99
2016-11-18T09:02:35.783Z,99.99
2016-11-18T09:03:49.496Z,99.99
2016-11-18T09:05:03.075Z,99.99
2016-11-18T09:06:16.026Z,99.99
2016-11-18T09:07:29.436Z,99.99
2016-11-18T09:08:42.521Z,99.99
2016-11-18T09:09:55.434Z,99.99
2016-11-18T09:12:52.131Z,99.99
2016-11-18T09:14:05.719Z,99.99
2016-11-18T09:15:18.571Z,99.99
2016-11-18T09:16:33.449Z,99.99
2016-11-18T09:17:46.468Z,99.99
2016-11-18T09:18:59.409Z,99.99
2016-11-18T09:20:12.410Z,99.99
2016-11-18T09:21:25.873Z,99.99
2016-11-18T09:22:39.027Z,99.99
2016-11-18T09:23:52.490Z,99.99
2016-11-18T09:25:05.556Z,99.99
2016-11-18T09:26:18.518Z,99.99
2016-11-18T09:27:32.163Z,99.99
2016-11-18T09:28:45.817Z,99.99
2016-11-18T09:29:58.290Z,99.99
2016-11-18T09:31:11.332Z,99.99
2016-11-18T09:32:24.423Z,99.99
2016-11-18T09:34:09.180Z,99.99
2016-11-18T09:35:22.195Z,99.99
2016-11-18T09:36:35.754Z,99.99
2016-11-18T09:37:48.789Z,99.99
2016-11-18T09:39:02.411Z,99.99
2016-11-18T09:40:15.875Z,99.99
2016-11-18T09:41:29.375Z,99.99
2016-11-18T09:42:42.575Z,99.99
2016-11-18T09:43:56.123Z,99.99
2016-11-18T09:45:09.632Z,99.99
2016-11-18T09:46:23.220Z,99.99
2016-11-18T09:47:36.160Z,99.99
2016-11-18T09:48:49.156Z,99.99
2016-11-18T09:50:01.765Z,99.99
2016-11-18T09:51:14.719Z,99.99
2016-11-18T09:52:27.261Z,99.99
2016-11-18T09:53:40.866Z,99.99
2016-11-18T09:54:54.354Z,99.99
2016-11-18T09:56:38.036Z,99.99
2016-11-18T09:57:51.618Z,99.99
2016-11-18T09:59:04.054Z,99.99
2016-11-18T10:00:17.806Z,99.99
2016-11-18T10:01:30.768Z,99.99
2016-11-18T10:02:44.124Z,99.99
2016-11-18T10:03:56.621Z,99.99
2016-11-18T10:05:09.717Z,99.99
2016-11-18T10:06:23.184Z,99.99
2016-11-18T10:08:06.775Z,99.99
2016-11-18T10:09:20.434Z,99.99
2016-11-18T10:10:34.038Z,99.99
2016-11-18T10:11:47.679Z,99.99
2016-11-18T10:13:00.767Z,99.99
2016-11-18T10:14:13.820Z,99.99
2016-11-18T10:15:27.272Z,99.99
2016-11-18T10:16:41.112Z,99.99
2016-11-18T10:17:54.073Z,99.99
2016-11-18T10:19:06.505Z,99.96
2016-11-18T10:20:19.954Z,99.58
2016-11-18T10:21:32.927Z,99.96
2016-11-18T10:22:46.000Z,99.99
2016-11-18T10:23:59.587Z,99.77
2016-11-18T10:25:12.042Z,99.99
2016-11-18T10:26:25.599Z,98.71
2016-11-18T10:27:39.429Z,99.1
2016-11-18T10:28:52.798Z,98.71
2016-11-18T10:30:06.418Z,98.14
2016-11-18T10:31:18.920Z,97.75
2016-11-18T10:32:31.940Z,98.43
2016-11-18T10:33:45.520Z,99.29
2016-11-18T10:34:59.036Z,98.81
2016-11-18T10:36:12.512Z,97.61
2016-11-18T10:37:25.469Z,97.8
2016-11-18T10:38:39.288Z,97.14
2016-11-18T10:39:51.732Z,97.42
2016-11-18T10:41:04.718Z,96.75
2016-11-18T10:42:18.205Z,96.56
2016-11-18T10:43:31.270Z,96.75
2016-11-18T10:44:44.472Z,96.08
2016-11-18T10:45:57.460Z,95.51
2016-11-18T10:47:10.486Z,94.93
2016-11-18T10:48:23.492Z,95.51
2016-11-18T10:51:21.201Z,95.94
2016-11-18T10:52:34.190Z,94.31
2016-11-18T10:53:47.139Z,93.83
2016-11-18T10:55:00.757Z,92.77
2016-11-18T10:56:14.282Z,92.49
2016-11-18T10:57:27.444Z,92.97
2016-11-18T10:58:41.080Z,91.72
2016-11-18T10:59:54.147Z,90.76
2016-11-18T11:01:07.571Z,90.38
2016-11-18T11:02:20.600Z,91.24
2016-11-18T11:03:34.277Z,91.34
2016-11-18T11:04:49.910Z,92.3
2016-11-18T11:06:03.139Z,89.9
2016-11-18T11:07:16.842Z,86.58
2016-11-18T11:08:28.983Z,86.34
2016-11-18T11:10:13.520Z,85.92
2016-11-18T11:11:27.331Z,86.49
2016-11-18T11:12:40.795Z,86.97
2016-11-18T11:13:53.747Z,87.01
2016-11-18T11:15:07.255Z,86.15
2016-11-18T11:16:20.735Z,85.77
2016-11-18T11:17:33.705Z,85.38
2016-11-18T11:18:47.208Z,86.1
2016-11-18T11:20:00.170Z,84.85
2016-11-18T11:21:12.765Z,84.22
2016-11-18T11:22:25.798Z,84.89
2016-11-18T11:23:39.302Z,80.51
2016-11-18T11:24:52.399Z,80.8
2016-11-18T11:26:04.913Z,81.24
2016-11-18T11:27:16.790Z,82.64
2016-11-18T11:28:30.713Z,84.95
2016-11-18T11:29:46.010Z,84.95
2016-11-18T11:31:12.627Z,85.1
2016-11-18T11:32:30.178Z,85.1
2016-11-18T11:33:43.640Z,86.54
2016-11-18T11:34:57.221Z,85.42
2016-11-18T11:36:10.523Z,84.85
2016-11-18T11:37:24.611Z,85.04
2016-11-18T11:38:37.561Z,84.75
2016-11-18T11:39:50.596Z,85.33
2016-11-18T11:41:04.095Z,84.66
2016-11-18T11:42:48.626Z,86.58
2016-11-18T11:44:02.302Z,85.38
2016-11-18T11:45:15.900Z,86.05
2016-11-18T11:46:29.733Z,87.26
2016-11-18T11:47:41.793Z,87.74
2016-11-18T11:48:54.747Z,87.45
2016-11-18T11:50:08.402Z,88.02
2016-11-18T11:51:21.931Z,87.45
2016-11-18T11:53:06.709Z,87.49
2016-11-18T11:54:19.217Z,87.49
2016-11-18T11:55:32.233Z,86.3
2016-11-18T11:57:17.014Z,88.51
2016-11-18T11:58:29.473Z,88.75
2016-11-18T11:59:42.610Z,87.98
2016-11-18T12:00:58.914Z,88.7
2016-11-18T12:02:14.018Z,88.12
2016-11-18T12:03:26.471Z,87.74
2016-11-18T12:04:39.615Z,87.55
2016-11-18T12:05:52.009Z,87.55
2016-11-18T12:07:05.607Z,87.11
2016-11-18T12:08:19.327Z,85.58
2016-11-18T12:09:33.253Z,84.91
2016-11-18T12:10:46.779Z,83.89
2016-11-18T12:12:00.366Z,83.16
2016-11-18T12:13:13.978Z,81.92
2016-11-18T12:14:26.956Z,79.11
2016-11-18T12:15:40.455Z,77.9
2016-11-18T12:16:53.439Z,75.88
2016-11-18T12:18:06.498Z,77.13
2016-11-18T12:19:19.694Z,78.09
2016-11-18T12:20:32.122Z,78.38
2016-11-18T12:21:45.718Z,78
2016-11-18T12:22:58.821Z,78.09
2016-11-18T12:24:12.469Z,77.42
2016-11-18T12:25:26.007Z,78.13
2016-11-18T12:26:39.008Z,77.71
2016-11-18T12:27:52.520Z,79.21
2016-11-18T12:29:06.065Z,81.23
2016-11-18T12:30:19.086Z,84.41
2016-11-18T12:31:32.158Z,85.52
2016-11-18T12:32:45.793Z,86.48
2016-11-18T12:33:58.849Z,85.04
2016-11-18T12:35:11.968Z,80.76
2016-11-18T12:36:24.534Z,77.83
2016-11-18T12:37:38.011Z,75.94
2016-11-18T12:38:51.507Z,77.63
2016-11-18T12:40:04.100Z,77.69
2016-11-18T12:41:17.692Z,77.5
2016-11-18T12:42:31.216Z,77.88
2016-11-18T12:43:44.875Z,78.65
2016-11-18T12:44:58.439Z,78.17
2016-11-18T12:46:11.466Z,76.64
2016-11-18T12:47:24.449Z,77.5
2016-11-18T12:48:36.849Z,77.11
2016-11-18T12:49:50.399Z,77.78
2016-11-18T12:51:03.738Z,76.64
2016-11-18T12:52:17.065Z,76.06
2016-11-18T12:53:30.915Z,76.09
2016-11-18T12:54:43.440Z,75.52
2016-11-18T12:55:56.410Z,76.48
2016-11-18T12:57:09.445Z,75.71
2016-11-18T12:58:22.404Z,74.98
2016-11-18T12:59:35.471Z,75.13
2016-11-18T13:00:49.418Z,75.42
2016-11-18T13:02:06.268Z,73.83
2016-11-18T13:03:24.236Z,74.46
2016-11-18T13:04:37.977Z,75.42
2016-11-18T13:05:50.988Z,76.25
2016-11-18T13:07:04.633Z,76.64
2016-11-18T13:08:18.059Z,76.92
2016-11-18T13:09:30.781Z,77.69
2016-11-18T13:10:44.258Z,77.01
2016-11-18T13:11:57.376Z,76.96
2016-11-18T13:13:09.959Z,76
2016-11-18T13:14:23.236Z,75.75
2016-11-18T13:15:37.150Z,76.57
2016-11-18T13:16:51.922Z,77.34
2016-11-18T13:18:05.048Z,78.65
2016-11-18T13:19:18.795Z,79.22
2016-11-18T13:20:32.333Z,80.19
2016-11-18T13:21:45.300Z,79.99
2016-11-18T13:22:58.331Z,79.17
2016-11-18T13:24:11.355Z,79.32
2016-11-18T13:25:24.389Z,79.8
2016-11-18T13:26:37.346Z,79.42
2016-11-18T13:27:50.357Z,79.42
2016-11-18T13:29:03.999Z,79.52
2016-11-18T13:30:16.515Z,79.99
2016-11-18T13:31:29.535Z,80.86
2016-11-18T13:32:42.152Z,81.53
2016-11-18T13:33:54.642Z,80.57
2016-11-18T13:35:07.165Z,79.27
2016-11-18T13:36:20.126Z,77.67
2016-11-18T13:37:33.558Z,78.06
2016-11-18T13:38:47.154Z,77.67
2016-11-18T13:40:00.954Z,77.58
2016-11-18T13:41:14.020Z,78.34
2016-11-18T13:42:27.568Z,77.09
2016-11-18T13:43:41.058Z,77.83
2016-11-18T13:44:54.159Z,78.75
2016-11-18T13:46:39.046Z,79.61
2016-11-18T13:47:52.049Z,80.47
2016-11-18T13:49:05.045Z,79.99
2016-11-18T13:50:18.173Z,79.8
2016-11-18T13:51:30.667Z,79.32
2016-11-18T13:52:44.196Z,78.45
2016-11-18T13:53:57.147Z,79.13
2016-11-18T13:55:09.661Z,79.8
2016-11-18T13:56:23.115Z,79.71
2016-11-18T13:57:36.309Z,79.9
2016-11-18T13:58:49.823Z,80.28
2016-11-18T14:00:02.896Z,80.43
2016-11-18T14:01:16.701Z,81.49
2016-11-18T14:02:30.235Z,81.87
2016-11-18T14:03:43.250Z,82.07
2016-11-18T14:04:55.676Z,81.1
2016-11-18T14:06:08.322Z,80.38
2016-11-18T14:07:20.815Z,81.15
2016-11-18T14:08:32.898Z,80.38
2016-11-18T14:09:45.405Z,80.09
2016-11-18T14:10:58.409Z,80.19
2016-11-18T14:12:12.072Z,80.76
2016-11-18T14:13:25.148Z,81.92
2016-11-18T14:14:38.278Z,81.97
2016-11-18T14:15:51.360Z,82.16
2016-11-18T14:17:04.642Z,82.45
2016-11-18T14:18:18.440Z,81.72
2016-11-18T14:19:32.866Z,80.86
2016-11-18T14:20:45.332Z,78.69
2016-11-18T14:21:58.929Z,77.86
2016-11-18T14:23:11.880Z,77.67
2016-11-18T14:24:25.133Z,77
2016-11-18T14:25:38.076Z,77
2016-11-18T14:26:51.162Z,76.07
2016-11-18T14:28:04.190Z,75.59
2016-11-18T14:29:17.833Z,75.59
2016-11-18T14:30:31.312Z,76.9
2016-11-18T14:31:44.787Z,78.15
2016-11-18T14:32:57.824Z,78.88
2016-11-18T14:34:10.882Z,79.65
2016-11-18T14:35:24.325Z,80.22
2016-11-18T14:36:37.872Z,80.42
2016-11-18T14:37:51.090Z,79.07
2016-11-18T14:39:05.092Z,78.98
2016-11-18T14:40:17.502Z,78.98
2016-11-18T14:41:31.101Z,77.63
2016-11-18T14:42:44.120Z,77.67
2016-11-18T14:43:57.900Z,76.14
2016-11-18T14:45:11.277Z,75.59
2016-11-18T14:46:24.314Z,76.75
2016-11-18T14:47:36.823Z,75.82
2016-11-18T14:48:49.879Z,76.94
2016-11-18T14:50:02.828Z,77.13
2016-11-18T14:51:15.804Z,77.29
2016-11-18T14:52:29.349Z,75.75
2016-11-18T14:53:42.518Z,74.92
2016-11-18T14:54:55.480Z,72.94
2016-11-18T14:56:08.446Z,73.51
2016-11-18T14:57:21.403Z,74.34
2016-11-18T14:58:34.408Z,75.49
2016-11-18T14:59:46.894Z,75.4
2016-11-18T15:01:00.556Z,75.75
2016-11-18T15:02:13.064Z,75.75
2016-11-18T15:03:26.500Z,75.46
2016-11-18T15:04:39.905Z,76.23
2016-11-18T15:05:53.442Z,75.46
2016-11-18T15:07:06.394Z,75.56
2016-11-18T15:08:19.298Z,75.75
2016-11-18T15:09:32.771Z,75.46
2016-11-18T15:10:45.739Z,74.92
2016-11-18T15:11:58.833Z,73.77
2016-11-18T15:13:11.854Z,73.22
2016-11-18T15:14:24.354Z,71.88
2016-11-18T15:15:37.769Z,70.95
2016-11-18T15:16:51.315Z,71.01
2016-11-18T15:18:04.983Z,71.97
2016-11-18T15:19:17.532Z,73.57
2016-11-18T15:20:31.047Z,74.82
2016-11-18T15:21:43.529Z,76.04
2016-11-18T15:23:27.500Z,77.63
2016-11-18T15:24:40.462Z,77.83
2016-11-18T15:25:53.405Z,78.02
2016-11-18T15:27:06.886Z,77.63
2016-11-18T15:28:20.479Z,76.19
2016-11-18T15:29:33.991Z,75.07
2016-11-18T15:30:46.510Z,75.27
2016-11-18T15:31:59.446Z,75.94
2016-11-18T15:33:12.914Z,76.42
2016-11-18T15:34:25.938Z,77.58
2016-11-18T15:35:39.493Z,77.92
2016-11-18T15:36:53.001Z,78.21
2016-11-18T15:38:06.488Z,77.73
2016-11-18T15:39:20.042Z,77.19
2016-11-18T15:40:32.496Z,76.71
2016-11-18T15:41:45.510Z,75.49
2016-11-18T15:42:58.488Z,75.31
2016-11-18T15:44:11.927Z,75.98
2016-11-18T15:45:25.440Z,77.48
2016-11-18T15:46:38.976Z,79.07
2016-11-18T15:47:52.554Z,80.9
2016-11-18T15:49:06.102Z,81.82
2016-11-18T15:50:19.659Z,82.87
2016-11-18T15:51:32.127Z,82.64
2016-11-18T15:52:45.200Z,83.12
2016-11-18T15:53:58.669Z,82.93
2016-11-18T15:55:12.160Z,83.03
2016-11-18T15:56:25.258Z,84.56